createdAt,value
2019-05-12T00:00:08.068Z,21.4378
2019-05-12T00:00:22.948Z,21.4511
2019-05-12T00:00:28.729Z,21.4939
2019-05-12T00:00:39.273Z,21.5499
2019-05-12T00:00:48.373Z,21.5499
2019-05-12T00:00:58.603Z,21.5072
2019-05-12T00:01:09.390Z,21.4805
2019-05-12T00:01:18.852Z,21.5072
2019-05-12T00:01:28.576Z,21.5499
2019-05-12T00:01:38.992Z,21.5366
2019-05-12T00:01:48.100Z,21.6114
2019-05-12T00:01:58.710Z,21.4805
2019-05-12T00:02:07.709Z,21.5232
2019-05-12T00:02:18.381Z,21.4511
2019-05-12T00:02:28.751Z,21.4805
2019-05-12T00:02:39.671Z,21.5072
2019-05-12T00:02:48.650Z,21.5953
2019-05-12T00:02:59.310Z,21.6114
2019-05-12T00:03:08.484Z,21.6514
2019-05-12T00:03:19.417Z,21.6247
2019-05-12T00:03:27.719Z,21.5953
2019-05-12T00:03:39.297Z,21.6114
2019-05-12T00:03:49.399Z,21.5660
2019-05-12T00:03:58.387Z,21.5366
2019-05-12T00:04:09.399Z,21.4084
2019-05-12T00:04:18.938Z,21.4244
2019-05-12T00:04:29.378Z,21.4939
2019-05-12T00:04:38.485Z,21.5072
2019-05-12T00:04:48.920Z,21.4805
2019-05-12T00:04:58.251Z,21.4805
2019-05-12T00:05:08.872Z,21.4511
2019-05-12T00:05:18.471Z,21.4511
2019-05-12T00:05:28.382Z,21.5072
2019-05-12T00:05:38.322Z,21.5499
2019-05-12T00:05:48.400Z,21.4511
2019-05-12T00:05:57.846Z,21.3817
2019-05-12T00:06:08.742Z,21.3817
2019-05-12T00:06:17.771Z,21.4672
2019-05-12T00:06:30.401Z,21.4244
2019-05-12T00:06:38.752Z,21.4672
2019-05-12T00:06:48.398Z,21.4672
2019-05-12T00:06:58.524Z,21.4378
2019-05-12T00:07:08.812Z,21.4805
2019-05-12T00:07:18.160Z,21.4672
2019-05-12T00:07:28.652Z,21.5072
2019-05-12T00:07:38.495Z,21.4939
2019-05-12T00:07:48.930Z,21.5072
2019-05-12T00:07:58.949Z,21.5232
2019-05-12T00:08:09.954Z,21.4939
2019-05-12T00:08:18.875Z,21.4939
2019-05-12T00:08:27.868Z,21.5366
2019-05-12T00:08:39.396Z,21.4939
2019-05-12T00:08:49.353Z,21.5366
2019-05-12T00:09:00.954Z,21.4805
2019-05-12T00:09:08.562Z,21.5072
2019-05-12T00:09:21.389Z,21.5072
2019-05-12T00:09:28.247Z,21.4805
2019-05-12T00:09:40.354Z,21.5232
2019-05-12T00:09:48.031Z,21.5072
2019-05-12T00:09:58.401Z,21.5366
2019-05-12T00:10:08.621Z,21.4378
2019-05-12T00:10:18.396Z,21.4939
2019-05-12T00:10:28.273Z,21.4511
2019-05-12T00:10:38.864Z,21.3523
2019-05-12T00:10:47.845Z,21.3523
2019-05-12T00:10:58.401Z,21.3684
2019-05-12T00:11:08.968Z,21.4511
2019-05-12T00:11:18.390Z,21.4511
2019-05-12T00:11:28.792Z,21.4511
2019-05-12T00:11:38.397Z,21.3951
2019-05-12T00:11:48.472Z,21.3390
2019-05-12T00:11:59.036Z,21.4378
2019-05-12T00:12:08.265Z,21.4805
2019-05-12T00:12:18.551Z,21.4511
2019-05-12T00:12:27.849Z,21.4672
2019-05-12T00:12:38.682Z,21.4805
2019-05-12T00:12:48.347Z,21.5232
2019-05-12T00:12:58.328Z,21.5820
2019-05-12T00:13:08.307Z,21.6381
2019-05-12T00:13:19.043Z,21.6381
2019-05-12T00:13:27.914Z,21.6674
2019-05-12T00:13:38.642Z,21.5820
2019-05-12T00:13:48.561Z,21.5232
2019-05-12T00:13:58.575Z,21.5366
2019-05-12T00:14:08.616Z,21.5232
2019-05-12T00:14:18.386Z,21.5366
2019-05-12T00:14:28.424Z,21.6247
2019-05-12T00:14:38.129Z,21.6381
2019-05-12T00:14:50.391Z,21.6247
2019-05-12T00:14:58.981Z,21.6381
2019-05-12T00:15:09.396Z,21.4511
2019-05-12T00:15:19.165Z,21.5499
2019-05-12T00:15:30.916Z,21.5820
2019-05-12T00:15:38.452Z,21.4805
2019-05-12T00:15:50.211Z,21.4672
2019-05-12T00:15:58.360Z,21.4939
2019-05-12T00:16:08.889Z,21.4244
2019-05-12T00:16:17.698Z,21.4244
2019-05-12T00:16:28.531Z,21.4939
2019-05-12T00:16:38.351Z,21.4672
2019-05-12T00:16:49.080Z,21.4805
2019-05-12T00:16:58.055Z,21.5499
2019-05-12T00:17:08.391Z,21.5366
2019-05-12T00:17:18.792Z,21.5953
2019-05-12T00:17:28.512Z,21.5953
2019-05-12T00:17:38.755Z,21.5820
2019-05-12T00:17:48.674Z,21.4805
2019-05-12T00:17:58.703Z,21.5499
2019-05-12T00:18:09.119Z,21.5953
2019-05-12T00:18:19.031Z,21.6381
2019-05-12T00:18:28.594Z,21.6514
2019-05-12T00:18:37.870Z,21.6247
2019-05-12T00:18:48.295Z,21.5953
2019-05-12T00:18:58.570Z,21.5499
2019-05-12T00:19:09.237Z,21.5660
2019-05-12T00:19:18.837Z,21.5366
2019-05-12T00:19:28.687Z,21.5499
2019-05-12T00:19:37.821Z,21.5072
2019-05-12T00:19:48.405Z,21.6114
2019-05-12T00:19:58.459Z,21.6114
2019-05-12T00:20:08.718Z,21.6514
2019-05-12T00:20:18.070Z,21.6114
2019-05-12T00:20:28.616Z,21.5660
2019-05-12T00:20:39.404Z,21.5232
2019-05-12T00:20:48.404Z,21.5499
2019-05-12T00:20:59.375Z,21.5499
2019-05-12T00:21:08.818Z,21.5072
2019-05-12T00:21:19.397Z,21.4805
2019-05-12T00:21:28.308Z,21.4672
2019-05-12T00:21:39.903Z,21.4805
2019-05-12T00:21:48.294Z,21.4939
2019-05-12T00:21:58.859Z,21.5072
2019-05-12T00:22:07.722Z,21.4939
2019-05-12T00:22:18.383Z,21.5499
2019-05-12T00:22:28.681Z,21.6114
2019-05-12T00:22:38.398Z,21.6808
2019-05-12T00:22:48.670Z,21.5820
2019-05-12T00:22:58.418Z,21.5953
2019-05-12T00:23:23.137Z,21.5499
2019-05-12T00:23:26.660Z,21.5366
2019-05-12T00:23:30.427Z,21.4805
2019-05-12T00:23:38.380Z,21.4805
2019-05-12T00:23:47.730Z,21.5660
2019-05-12T00:23:58.226Z,21.5366
2019-05-12T00:24:09.055Z,21.5499
2019-05-12T00:24:18.796Z,21.5820
2019-05-12T00:24:28.012Z,21.5232
2019-05-12T00:24:38.420Z,21.5232
2019-05-12T00:24:47.897Z,21.5660
2019-05-12T00:24:58.429Z,21.6114
2019-05-12T00:25:08.789Z,21.6381
2019-05-12T00:25:18.525Z,21.6247
2019-05-12T00:25:28.452Z,21.6247
2019-05-12T00:25:38.871Z,21.6247
2019-05-12T00:25:48.002Z,21.5820
2019-05-12T00:25:58.732Z,21.5660
2019-05-12T00:26:08.363Z,21.5232
2019-05-12T00:26:18.708Z,21.5366
2019-05-12T00:26:30.175Z,21.5499
2019-05-12T00:26:38.402Z,21.5820
2019-05-12T00:26:49.388Z,21.5660
2019-05-12T00:27:02.128Z,21.5499
2019-05-12T00:27:09.405Z,21.4511
2019-05-12T00:27:19.056Z,21.4672
2019-05-12T00:27:28.507Z,21.5072
2019-05-12T00:27:38.748Z,21.4939
2019-05-12T00:27:48.873Z,21.5072
2019-05-12T00:27:58.598Z,21.5660
2019-05-12T00:28:08.418Z,21.5366
2019-05-12T00:28:17.909Z,21.5232
2019-05-12T00:28:28.549Z,21.5660
2019-05-12T00:28:37.674Z,21.5072
2019-05-12T00:28:48.947Z,21.4672
2019-05-12T00:28:58.793Z,21.4939
2019-05-12T00:29:08.415Z,21.6114
2019-05-12T00:29:18.485Z,21.5232
2019-05-12T00:29:28.795Z,21.5232
2019-05-12T00:29:37.825Z,21.4672
2019-05-12T00:29:50.943Z,21.4378
2019-05-12T00:29:57.840Z,21.4939
2019-05-12T00:30:09.909Z,21.5072
2019-05-12T00:30:18.526Z,21.5953
2019-05-12T00:30:27.853Z,21.6247
2019-05-12T00:30:38.792Z,21.6247
2019-05-12T00:30:48.784Z,21.6114
2019-05-12T00:30:58.084Z,21.6247
2019-05-12T00:31:08.481Z,21.5660
2019-05-12T00:31:18.834Z,21.5499
2019-05-12T00:31:28.071Z,21.5499
2019-05-12T00:31:38.295Z,21.5366
2019-05-12T00:31:47.894Z,21.4939
2019-05-12T00:31:58.432Z,21.4805
2019-05-12T00:32:08.624Z,21.5232
2019-05-12T00:32:17.965Z,21.5072
2019-05-12T00:32:28.384Z,21.4939
2019-05-12T00:32:39.399Z,21.4672
2019-05-12T00:32:48.404Z,21.5232
2019-05-12T00:33:00.191Z,21.5499
2019-05-12T00:33:09.245Z,21.5366
2019-05-12T00:33:19.387Z,21.5499
2019-05-12T00:33:28.226Z,21.5820
2019-05-12T00:33:39.383Z,21.4672
2019-05-12T00:33:48.043Z,21.4084
2019-05-12T00:33:58.775Z,21.4511
2019-05-12T00:34:07.797Z,21.4805
2019-05-12T00:34:18.611Z,21.4672
2019-05-12T00:34:28.931Z,21.5366
2019-05-12T00:34:38.588Z,21.5366
2019-05-12T00:34:48.068Z,21.5072
2019-05-12T00:34:58.567Z,21.4805
2019-05-12T00:35:08.045Z,21.4939
2019-05-12T00:35:18.416Z,21.5232
2019-05-12T00:35:28.494Z,21.5232
2019-05-12T00:35:38.406Z,21.5660
2019-05-12T00:35:48.329Z,21.5953
2019-05-12T00:35:58.726Z,21.5499
2019-05-12T00:36:07.998Z,21.5660
2019-05-12T00:36:18.627Z,21.5953
2019-05-12T00:36:29.218Z,21.6114
2019-05-12T00:36:39.594Z,21.5499
2019-05-12T00:36:48.503Z,21.5499
2019-05-12T00:36:58.384Z,21.5366
2019-05-12T00:37:09.374Z,21.5072
2019-05-12T00:37:18.666Z,21.5072
2019-05-12T00:37:28.875Z,21.5366
2019-05-12T00:37:38.136Z,21.5366
2019-05-12T00:37:48.622Z,21.4511
2019-05-12T00:37:58.403Z,21.4244
2019-05-12T00:38:08.979Z,21.4672
2019-05-12T00:38:18.394Z,21.4805
2019-05-12T00:38:29.376Z,21.4672
2019-05-12T00:38:39.377Z,21.4805
2019-05-12T00:38:49.391Z,21.5366
2019-05-12T00:38:57.996Z,21.4939
2019-05-12T00:39:10.384Z,21.4672
2019-05-12T00:39:19.072Z,21.5366
2019-05-12T00:39:28.410Z,21.5232
2019-05-12T00:39:38.266Z,21.4378
2019-05-12T00:39:48.391Z,21.5366
2019-05-12T00:39:58.271Z,21.5499
2019-05-12T00:40:08.969Z,21.5366
2019-05-12T00:40:19.116Z,21.5953
2019-05-12T00:40:28.399Z,21.5820
2019-05-12T00:40:39.113Z,21.5072
2019-05-12T00:40:48.397Z,21.4939
2019-05-12T00:40:58.334Z,21.4672
2019-05-12T00:41:08.870Z,21.4672
2019-05-12T00:41:18.148Z,21.5072
2019-05-12T00:41:28.506Z,21.4672
2019-05-12T00:41:38.939Z,21.4939
2019-05-12T00:41:48.173Z,21.4378
2019-05-12T00:41:59.400Z,21.4511
2019-05-12T00:42:08.392Z,21.3951
2019-05-12T00:42:20.903Z,21.4244
2019-05-12T00:42:28.814Z,21.3684
2019-05-12T00:42:38.145Z,21.4511
2019-05-12T00:42:49.309Z,21.4244
2019-05-12T00:42:59.428Z,21.4805
2019-05-12T00:43:08.887Z,21.5366
2019-05-12T00:43:19.389Z,21.4805
2019-05-12T00:43:28.129Z,21.4805
2019-05-12T00:43:42.958Z,21.5366
2019-05-12T00:43:48.726Z,21.5953
2019-05-12T00:43:58.393Z,21.6114
2019-05-12T00:44:08.826Z,21.6114
2019-05-12T00:44:18.351Z,21.6381
2019-05-12T00:44:28.463Z,21.5232
2019-05-12T00:44:39.072Z,21.4378
2019-05-12T00:44:47.895Z,21.4511
2019-05-12T00:44:58.641Z,21.4511
2019-05-12T00:45:08.063Z,21.4939
2019-05-12T00:45:18.398Z,21.5232
2019-05-12T00:45:29.207Z,21.5232
2019-05-12T00:45:38.787Z,21.5366
2019-05-12T00:45:48.202Z,21.5232
2019-05-12T00:45:58.777Z,21.5072
2019-05-12T00:46:07.918Z,21.5072
2019-05-12T00:46:18.402Z,21.5499
2019-05-12T00:46:28.887Z,21.4939
2019-05-12T00:46:39.870Z,21.5072
2019-05-12T00:46:49.419Z,21.4805
2019-05-12T00:46:58.384Z,21.5232
2019-05-12T00:47:08.541Z,21.4939
2019-05-12T00:47:18.771Z,21.4672
2019-05-12T00:47:28.043Z,21.4378
2019-05-12T00:47:39.020Z,21.4378
2019-05-12T00:47:48.108Z,21.3817
2019-05-12T00:47:59.357Z,21.4805
2019-05-12T00:48:09.726Z,21.6114
2019-05-12T00:48:18.391Z,21.5953
2019-05-12T00:48:30.298Z,21.5499
2019-05-12T00:48:38.394Z,21.5366
2019-05-12T00:48:49.415Z,21.5660
2019-05-12T00:48:58.510Z,21.5660
2019-05-12T00:49:10.381Z,21.5072
2019-05-12T00:49:18.672Z,21.5660
2019-05-12T00:49:29.076Z,21.5660
2019-05-12T00:49:37.883Z,21.5953
2019-05-12T00:49:49.528Z,21.6381
2019-05-12T00:49:58.343Z,21.5953
2019-05-12T00:50:08.391Z,21.6381
2019-05-12T00:50:18.415Z,21.6381
2019-05-12T00:50:30.912Z,21.6114
2019-05-12T00:50:38.204Z,21.5953
2019-05-12T00:50:48.696Z,21.5660
2019-05-12T00:50:58.377Z,21.6114
2019-05-12T00:51:08.417Z,21.5366
2019-05-12T00:51:18.110Z,21.5366
2019-05-12T00:51:28.983Z,21.5660
2019-05-12T00:51:38.417Z,21.5499
2019-05-12T00:51:48.598Z,21.4805
2019-05-12T00:51:58.705Z,21.5660
2019-05-12T00:52:08.434Z,21.4672
2019-05-12T00:52:18.679Z,21.4805
2019-05-12T00:52:28.149Z,21.5820
2019-05-12T00:52:38.745Z,21.5953
2019-05-12T00:52:49.640Z,21.5499
2019-05-12T00:52:58.018Z,21.5232
2019-05-12T00:53:09.674Z,21.5366
2019-05-12T00:53:20.347Z,21.5660
2019-05-12T00:53:37.115Z,21.5660
2019-05-12T00:53:43.232Z,21.5232
2019-05-12T00:53:47.945Z,21.5232
2019-05-12T00:54:00.354Z,21.5499
2019-05-12T00:54:09.913Z,21.4511
2019-05-12T00:54:18.400Z,21.4672
2019-05-12T00:54:28.448Z,21.4939
2019-05-12T00:54:38.399Z,21.5499
2019-05-12T00:54:48.319Z,21.5072
2019-05-12T00:54:58.696Z,21.5366
2019-05-12T00:55:08.106Z,21.5232
2019-05-12T00:55:18.527Z,21.5072
2019-05-12T00:55:28.999Z,21.4805
2019-05-12T00:55:38.589Z,21.4511
2019-05-12T00:55:47.726Z,21.4672
2019-05-12T00:55:58.389Z,21.4805
2019-05-12T00:56:09.402Z,21.4805
2019-05-12T00:56:18.379Z,21.4805
2019-05-12T00:56:28.384Z,21.5232
2019-05-12T00:56:39.143Z,21.4805
2019-05-12T00:56:48.180Z,21.5072
2019-05-12T00:56:58.555Z,21.5072
2019-05-12T00:57:07.835Z,21.5232
2019-05-12T00:57:18.383Z,21.5366
2019-05-12T00:57:28.662Z,21.5232
2019-05-12T00:57:38.239Z,21.5366
2019-05-12T00:57:50.939Z,21.4511
2019-05-12T00:57:58.349Z,21.4939
2019-05-12T00:58:08.335Z,21.4939
2019-05-12T00:58:19.816Z,21.5366
2019-05-12T00:58:28.270Z,21.5366
2019-05-12T00:58:38.409Z,21.5072
2019-05-12T00:58:48.750Z,21.5072
2019-05-12T00:58:58.386Z,21.5660
2019-05-12T00:59:10.446Z,21.5366
2019-05-12T00:59:19.083Z,21.5660
2019-05-12T00:59:30.313Z,21.5072
2019-05-12T00:59:38.259Z,21.4939
2019-05-12T00:59:49.387Z,21.4244
2019-05-12T00:59:58.219Z,21.4939
2019-05-12T01:00:09.371Z,21.4378
2019-05-12T01:00:17.843Z,21.4939
2019-05-12T01:00:29.661Z,21.5366
2019-05-12T01:00:40.572Z,21.5072
2019-05-12T01:00:48.414Z,21.5366
2019-05-12T01:00:59.624Z,21.5499
2019-05-12T01:01:08.403Z,21.5366
2019-05-12T01:01:18.376Z,21.5660
2019-05-12T01:01:28.720Z,21.6114
2019-05-12T01:01:38.102Z,21.5820
2019-05-12T01:01:48.409Z,21.6247
2019-05-12T01:01:58.606Z,21.6247
2019-05-12T01:02:08.385Z,21.5660
2019-05-12T01:02:18.312Z,21.4672
2019-05-12T01:02:28.768Z,21.5232
2019-05-12T01:02:38.025Z,21.5499
2019-05-12T01:02:48.642Z,21.5660
2019-05-12T01:02:58.290Z,21.5499
2019-05-12T01:03:08.787Z,21.4939
2019-05-12T01:03:18.830Z,21.5232
2019-05-12T01:03:28.409Z,21.5072
2019-05-12T01:03:38.215Z,21.5232
2019-05-12T01:03:48.465Z,21.5499
2019-05-12T01:03:59.406Z,21.5953
2019-05-12T01:04:08.987Z,21.5820
2019-05-12T01:04:17.678Z,21.4805
2019-05-12T01:04:29.139Z,21.5232
2019-05-12T01:04:38.150Z,21.5232
2019-05-12T01:04:48.814Z,21.4939
2019-05-12T01:04:58.127Z,21.5232
2019-05-12T01:05:08.738Z,21.5072
2019-05-12T01:05:17.782Z,21.5232
2019-05-12T01:05:29.426Z,21.5232
2019-05-12T01:05:38.327Z,21.5499
2019-05-12T01:05:48.675Z,21.5232
2019-05-12T01:05:57.751Z,21.5660
2019-05-12T01:06:08.533Z,21.4939
2019-05-12T01:06:20.402Z,21.4672
2019-05-12T01:06:28.458Z,21.5072
2019-05-12T01:06:39.385Z,21.4805
2019-05-12T01:06:51.911Z,21.5820
2019-05-12T01:07:00.371Z,21.5366
2019-05-12T01:07:08.673Z,21.4244
2019-05-12T01:07:20.302Z,21.4511
2019-05-12T01:07:27.828Z,21.4805
2019-05-12T01:07:38.411Z,21.5232
2019-05-12T01:07:48.189Z,21.4939
2019-05-12T01:07:58.625Z,21.4511
2019-05-12T01:08:08.886Z,21.5499
2019-05-12T01:08:18.812Z,21.5499
2019-05-12T01:08:28.031Z,21.5366
2019-05-12T01:08:38.477Z,21.5232
2019-05-12T01:08:48.346Z,21.5660
2019-05-12T01:08:58.402Z,21.5232
2019-05-12T01:09:08.778Z,21.4939
2019-05-12T01:09:18.387Z,21.3951
2019-05-12T01:09:28.169Z,21.4244
2019-05-12T01:09:38.614Z,21.4805
2019-05-12T01:09:49.130Z,21.4805
2019-05-12T01:10:00.905Z,21.5366
2019-05-12T01:10:08.735Z,21.5499
2019-05-12T01:10:18.384Z,21.5366
2019-05-12T01:10:28.627Z,21.4805
2019-05-12T01:10:39.142Z,21.4672
2019-05-12T01:10:47.880Z,21.4378
2019-05-12T01:10:58.321Z,21.4511
2019-05-12T01:11:08.791Z,21.5232
2019-05-12T01:11:18.404Z,21.4672
2019-05-12T01:11:28.595Z,21.4672
2019-05-12T01:11:39.579Z,21.5072
2019-05-12T01:11:48.636Z,21.5660
2019-05-12T01:11:58.908Z,21.5232
2019-05-12T01:12:09.383Z,21.4511
2019-05-12T01:12:18.410Z,21.4672
2019-05-12T01:12:30.270Z,21.5072
2019-05-12T01:12:38.453Z,21.5072
2019-05-12T01:12:49.427Z,21.4805
2019-05-12T01:12:58.105Z,21.4672
2019-05-12T01:13:10.299Z,21.3951
2019-05-12T01:13:18.671Z,21.3817
2019-05-12T01:13:30.381Z,21.3817
2019-05-12T01:13:38.239Z,21.4084
2019-05-12T01:13:48.624Z,21.5072
2019-05-12T01:13:58.276Z,21.5072
2019-05-12T01:14:08.771Z,21.4378
2019-05-12T01:14:18.678Z,21.4084
2019-05-12T01:14:28.390Z,21.5072
2019-05-12T01:14:38.343Z,21.4939
2019-05-12T01:14:48.388Z,21.4939
2019-05-12T01:14:58.541Z,21.4939
2019-05-12T01:15:10.870Z,21.4378
2019-05-12T01:15:17.782Z,21.3951
2019-05-12T01:15:28.773Z,21.3817
2019-05-12T01:15:37.952Z,21.4244
2019-05-12T01:15:48.389Z,21.4672
2019-05-12T01:15:58.683Z,21.4378
2019-05-12T01:16:08.375Z,21.4244
2019-05-12T01:16:18.422Z,21.4244
2019-05-12T01:16:28.975Z,21.4672
2019-05-12T01:16:38.507Z,21.4805
2019-05-12T01:16:48.679Z,21.4244
2019-05-12T01:16:57.876Z,21.3951
2019-05-12T01:17:08.548Z,21.3951
2019-05-12T01:17:17.827Z,21.4511
2019-05-12T01:17:28.281Z,21.4939
2019-05-12T01:17:40.390Z,21.4939
2019-05-12T01:17:49.290Z,21.4511
2019-05-12T01:17:58.542Z,21.4511
2019-05-12T01:18:11.969Z,21.4378
2019-05-12T01:18:19.398Z,21.4805
2019-05-12T01:18:28.409Z,21.3951
2019-05-12T01:18:39.389Z,21.3684
2019-05-12T01:18:48.002Z,21.4084
2019-05-12T01:18:59.383Z,21.4939
2019-05-12T01:19:07.930Z,21.5499
2019-05-12T01:19:19.408Z,21.5072
2019-05-12T01:19:28.785Z,21.4672
2019-05-12T01:19:40.499Z,21.4511
2019-05-12T01:19:48.610Z,21.4511
2019-05-12T01:19:58.535Z,21.4378
2019-05-12T01:20:08.888Z,21.4672
2019-05-12T01:20:18.405Z,21.4672
2019-05-12T01:20:28.445Z,21.4672
2019-05-12T01:20:39.152Z,21.5072
2019-05-12T01:20:47.943Z,21.5232
2019-05-12T01:20:58.482Z,21.5232
2019-05-12T01:21:07.847Z,21.5072
2019-05-12T01:21:20.936Z,21.4805
2019-05-12T01:21:28.758Z,21.4939
2019-05-12T01:21:38.388Z,21.5232
2019-05-12T01:21:48.122Z,21.4805
2019-05-12T01:21:58.812Z,21.4939
2019-05-12T01:22:08.080Z,21.4672
2019-05-12T01:22:18.742Z,21.5232
2019-05-12T01:22:27.779Z,21.5499
2019-05-12T01:22:38.518Z,21.5072
2019-05-12T01:22:50.388Z,21.5660
2019-05-12T01:22:58.400Z,21.5499
2019-05-12T01:23:08.518Z,21.5499
2019-05-12T01:23:19.973Z,21.4939
2019-05-12T01:23:28.132Z,21.5232
2019-05-12T01:23:53.390Z,21.5232
2019-05-12T01:23:56.437Z,21.5660
2019-05-12T01:24:03.294Z,21.5499
2019-05-12T01:24:12.882Z,21.5072
2019-05-12T01:24:18.878Z,21.4672
2019-05-12T01:24:28.163Z,21.4511
2019-05-12T01:24:38.478Z,21.3684
2019-05-12T01:24:48.468Z,21.3951
2019-05-12T01:24:58.409Z,21.4939
2019-05-12T01:25:08.626Z,21.5660
2019-05-12T01:25:18.421Z,21.4805
2019-05-12T01:25:29.407Z,21.4378
2019-05-12T01:25:39.728Z,21.4939
2019-05-12T01:25:50.829Z,21.4939
2019-05-12T01:25:58.569Z,21.5660
2019-05-12T01:26:09.394Z,21.5499
2019-05-12T01:26:17.943Z,21.5660
2019-05-12T01:26:30.517Z,21.5232
2019-05-12T01:26:38.807Z,21.5072
2019-05-12T01:26:50.303Z,21.4378
2019-05-12T01:26:58.231Z,21.3523
2019-05-12T01:27:12.942Z,21.3817
2019-05-12T01:27:18.089Z,21.4511
2019-05-12T01:27:28.920Z,21.4939
2019-05-12T01:27:38.070Z,21.5660
2019-05-12T01:27:48.415Z,21.5660
2019-05-12T01:27:58.882Z,21.5499
2019-05-12T01:28:08.468Z,21.5820
2019-05-12T01:28:18.372Z,21.5499
2019-05-12T01:28:28.387Z,21.5953
2019-05-12T01:28:38.261Z,21.5660
2019-05-12T01:28:48.912Z,21.6381
2019-05-12T01:28:58.067Z,21.6247
2019-05-12T01:29:08.637Z,21.5820
2019-05-12T01:29:17.758Z,21.4939
2019-05-12T01:29:28.390Z,21.3684
2019-05-12T01:29:38.545Z,21.3951
2019-05-12T01:29:48.395Z,21.3390
2019-05-12T01:29:58.088Z,21.3096
2019-05-12T01:30:08.902Z,21.4084
2019-05-12T01:30:18.063Z,21.4939
2019-05-12T01:30:28.712Z,21.5366
2019-05-12T01:30:39.105Z,21.5660
2019-05-12T01:30:48.054Z,21.4939
2019-05-12T01:30:58.183Z,21.5232
2019-05-12T01:31:08.600Z,21.5072
2019-05-12T01:31:18.811Z,21.4805
2019-05-12T01:31:28.609Z,21.4805
2019-05-12T01:31:38.381Z,21.5072
2019-05-12T01:31:48.611Z,21.5499
2019-05-12T01:31:58.574Z,21.5366
2019-05-12T01:32:09.343Z,21.4939
2019-05-12T01:32:18.279Z,21.4244
2019-05-12T01:32:31.963Z,21.3817
2019-05-12T01:32:39.402Z,21.3817
2019-05-12T01:32:49.269Z,21.3817
2019-05-12T01:32:58.320Z,21.4378
2019-05-12T01:33:08.575Z,21.4378
2019-05-12T01:33:19.391Z,21.4511
2019-05-12T01:33:27.751Z,21.4511
2019-05-12T01:33:39.384Z,21.5366
2019-05-12T01:33:48.596Z,21.5660
2019-05-12T01:33:58.601Z,21.6247
2019-05-12T01:34:08.113Z,21.5660
2019-05-12T01:34:18.425Z,21.4939
2019-05-12T01:34:27.879Z,21.4805
2019-05-12T01:34:38.396Z,21.5072
2019-05-12T01:34:48.646Z,21.5232
2019-05-12T01:34:58.382Z,21.5232
2019-05-12T01:35:08.060Z,21.5232
2019-05-12T01:35:18.570Z,21.5660
2019-05-12T01:35:28.181Z,21.5499
2019-05-12T01:35:38.974Z,21.4939
2019-05-12T01:35:48.253Z,21.5232
2019-05-12T01:35:58.769Z,21.4939
2019-05-12T01:36:07.940Z,21.4084
2019-05-12T01:36:18.395Z,21.4244
2019-05-12T01:36:28.698Z,21.4084
2019-05-12T01:36:38.411Z,21.4244
2019-05-12T01:36:48.446Z,21.4939
2019-05-12T01:36:58.549Z,21.5232
2019-05-12T01:37:09.882Z,21.5366
2019-05-12T01:37:18.531Z,21.5366
2019-05-12T01:37:28.824Z,21.5072
2019-05-12T01:37:38.383Z,21.5366
2019-05-12T01:37:48.427Z,21.5366
2019-05-12T01:38:01.457Z,21.3817
2019-05-12T01:38:07.968Z,21.4244
2019-05-12T01:38:18.428Z,21.4511
2019-05-12T01:38:28.719Z,21.4378
2019-05-12T01:38:38.383Z,21.4805
2019-05-12T01:38:48.395Z,21.4939
2019-05-12T01:39:01.579Z,21.4805
2019-05-12T01:39:09.387Z,21.5072
2019-05-12T01:39:19.304Z,21.4378
2019-05-12T01:39:28.964Z,21.4378
2019-05-12T01:39:38.415Z,21.4378
2019-05-12T01:39:49.232Z,21.4511
2019-05-12T01:39:59.893Z,21.4378
2019-05-12T01:40:10.642Z,21.4378
2019-05-12T01:40:19.085Z,21.4511
2019-05-12T01:40:30.462Z,21.4511
2019-05-12T01:40:39.435Z,21.4672
2019-05-12T01:40:48.384Z,21.4805
2019-05-12T01:40:58.411Z,21.5232
2019-05-12T01:41:08.820Z,21.5072
2019-05-12T01:41:17.993Z,21.4672
2019-05-12T01:41:28.759Z,21.4378
2019-05-12T01:41:38.910Z,21.4244
2019-05-12T01:41:48.401Z,21.5499
2019-05-12T01:41:58.715Z,21.5499
2019-05-12T01:42:09.128Z,21.5232
2019-05-12T01:42:18.033Z,21.5232
2019-05-12T01:42:28.800Z,21.5072
2019-05-12T01:42:38.254Z,21.5072
2019-05-12T01:42:48.481Z,21.4511
2019-05-12T01:42:58.146Z,21.5232
2019-05-12T01:43:08.543Z,21.4939
2019-05-12T01:43:18.699Z,21.4939
2019-05-12T01:43:28.398Z,21.5072
2019-05-12T01:43:38.224Z,21.5072
2019-05-12T01:43:48.807Z,21.6114
2019-05-12T01:43:58.464Z,21.6247
2019-05-12T01:44:08.789Z,21.5232
2019-05-12T01:44:18.365Z,21.5499
2019-05-12T01:44:28.747Z,21.5499
2019-05-12T01:44:38.318Z,21.5232
2019-05-12T01:44:49.678Z,21.5072
2019-05-12T01:44:59.928Z,21.5499
2019-05-12T01:45:09.241Z,21.5953
2019-05-12T01:45:20.308Z,21.5232
2019-05-12T01:45:29.023Z,21.5499
2019-05-12T01:45:39.410Z,21.5499
2019-05-12T01:45:48.298Z,21.5660
2019-05-12T01:46:00.516Z,21.5366
2019-05-12T01:46:08.025Z,21.4805
2019-05-12T01:46:18.400Z,21.4378
2019-05-12T01:46:31.942Z,21.5072
2019-05-12T01:46:38.529Z,21.5232
2019-05-12T01:46:48.418Z,21.5953
2019-05-12T01:46:58.379Z,21.5366
2019-05-12T01:47:10.942Z,21.4378
2019-05-12T01:47:18.841Z,21.3684
2019-05-12T01:47:29.107Z,21.4084
2019-05-12T01:47:42.949Z,21.3817
2019-05-12T01:47:48.559Z,21.4378
2019-05-12T01:47:59.423Z,21.3951
2019-05-12T01:48:08.863Z,21.4084
2019-05-12T01:48:18.579Z,21.4244
2019-05-12T01:48:28.700Z,21.5232
2019-05-12T01:48:38.391Z,21.4939
2019-05-12T01:48:48.434Z,21.4511
2019-05-12T01:48:59.098Z,21.4084
2019-05-12T01:49:08.217Z,21.4511
2019-05-12T01:49:18.800Z,21.5366
2019-05-12T01:49:28.979Z,21.5072
2019-05-12T01:49:38.405Z,21.5232
2019-05-12T01:49:48.816Z,21.5366
2019-05-12T01:49:58.428Z,21.4378
2019-05-12T01:50:09.167Z,21.4244
2019-05-12T01:50:17.881Z,21.4805
2019-05-12T01:50:28.640Z,21.4672
2019-05-12T01:50:38.970Z,21.5953
2019-05-12T01:50:47.638Z,21.5820
2019-05-12T01:50:59.439Z,21.5820
2019-05-12T01:51:08.388Z,21.4939
2019-05-12T01:51:18.390Z,21.4672
2019-05-12T01:51:29.380Z,21.5072
2019-05-12T01:51:39.532Z,21.4672
2019-05-12T01:51:48.387Z,21.4939
2019-05-12T01:51:58.378Z,21.5232
2019-05-12T01:52:09.370Z,21.5499
2019-05-12T01:52:17.869Z,21.5072
2019-05-12T01:52:29.406Z,21.5232
2019-05-12T01:52:38.587Z,21.5499
2019-05-12T01:52:48.416Z,21.4378
2019-05-12T01:52:59.151Z,21.3951
2019-05-12T01:53:08.701Z,21.4805
2019-05-12T01:53:18.117Z,21.5366
2019-05-12T01:53:28.768Z,21.5072
2019-05-12T01:53:37.941Z,21.4939
2019-05-12T01:53:48.406Z,21.4511
2019-05-12T01:54:10.962Z,21.3684
2019-05-12T01:54:13.761Z,21.4244
2019-05-12T01:54:18.876Z,21.4939
2019-05-12T01:54:28.394Z,21.5366
2019-05-12T01:54:39.900Z,21.5499
2019-05-12T01:54:48.514Z,21.4511
2019-05-12T01:54:59.011Z,21.4939
2019-05-12T01:55:08.506Z,21.5660
2019-05-12T01:55:18.575Z,21.5499
2019-05-12T01:55:28.469Z,21.4805
2019-05-12T01:55:42.182Z,21.4805
2019-05-12T01:55:48.627Z,21.4939
2019-05-12T01:55:58.516Z,21.4511
2019-05-12T01:56:08.398Z,21.4378
2019-05-12T01:56:18.194Z,21.4939
2019-05-12T01:56:28.796Z,21.5232
2019-05-12T01:56:38.284Z,21.5499
2019-05-12T01:56:48.469Z,21.4939
2019-05-12T01:56:58.659Z,21.5232
2019-05-12T01:57:08.397Z,21.4672
2019-05-12T01:57:18.864Z,21.4511
2019-05-12T01:57:28.883Z,21.4511
2019-05-12T01:57:38.681Z,21.4511
2019-05-12T01:57:48.657Z,21.4378
2019-05-12T01:57:57.951Z,21.4378
2019-05-12T01:58:08.733Z,21.4511
2019-05-12T01:58:19.700Z,21.4378
2019-05-12T01:58:28.412Z,21.4511
2019-05-12T01:58:38.158Z,21.4378
2019-05-12T01:58:48.507Z,21.4672
2019-05-12T01:58:59.392Z,21.4378
2019-05-12T01:59:08.141Z,21.4244
2019-05-12T01:59:19.387Z,21.4805
2019-05-12T01:59:28.743Z,21.5499
2019-05-12T01:59:38.373Z,21.4511
2019-05-12T01:59:48.415Z,21.4084
2019-05-12T01:59:58.687Z,21.4939
2019-05-12T02:00:08.075Z,21.4939
2019-05-12T02:00:18.404Z,21.5232
2019-05-12T02:00:28.924Z,21.5232
2019-05-12T02:00:39.137Z,21.4805
2019-05-12T02:00:48.291Z,21.4244
2019-05-12T02:00:58.963Z,21.4511